Airfield :
LOGIN :

Register | Disclaimer

   EN    FR    IT 

 










Legend :    VFR   Marginal VFR   IFR   Intensive IFR   Very Intensive IFR
Visi :
Ceiling :
>= 8 km
>= 3000ft
5 to 8 km
1000 to 3000 ft
1500m to 5 km
500 to 1000 ft
800 to 1500m
200 to 500 ft
< 800m
< 200 ft
Symbols :   Thunderstorms  Fog  Heavy snow  Heavy precipitations  Wind > 20 kt
SIGMETs :     Misc.  Thunderstorms  Icing  Turbulence  Mountain Waves  Volcanic Ashes







- Airport Elevation : 935 ft


EBFS - Florennes

CURRENT METAR :
  • 161455Z 31008KT 9999 FEW025 BKN080 19/14 Q1021 BLU BLU

EXPIRED METARs :
  • 161425Z 29008KT 9999 FEW025 BKN080 20/14 Q1021 BLU BLU
  • 161355Z 29008KT 9999 FEW070 BKN085 20/13 Q1021 BLU BLU
  • 161325Z 28007KT 9999 FEW080 BKN100 20/11 Q1021 BLU BLU
  • 161255Z 28007KT 9999 FEW080 BKN110 20/09 Q1021 BLU BLU

TAF TAF EBFS
Valid from the 16 at 13:00 until the 16 at 22:00 UTC


161141Z 1613/1622 30008KT 9999 FEW030 BKN100
BECMG 1616/1618 35010KT FEW012 SCT020 BKN040
TEMPO 1616/1619 4000 -RA FEW010 SCT012 BKN020
TEMPO 1620/1622 2000 RA SCT006 BKN010 BKN015
No reported NOTAMs for that airfield.



MET'MAP, your aeronautical weather chart ! - Copyright ORBIFLY December 2007 - Disclaimer

ORBIFLY MET'MAP TEAM :

Programming & Development : Alexandra Zaïnal
Concept & Development : Baudouin d'Aumeries
Co-Development & Prog : Marc-Olivier Méhu
Technical & hardware support : Manuel Goepfert

Contact : metmap@orbifly.com




SOURCES & CREDITS :

   NOAA